createdAt,value
2022-11-15T00:01:47.758Z,4.14
2022-11-15T00:04:36.525Z,4.21
2022-11-15T00:07:53.571Z,4.19
2022-11-15T00:10:34.464Z,4.24
2022-11-15T00:13:23.564Z,4.15
2022-11-15T00:16:13.251Z,4.23
2022-11-15T00:19:04.686Z,4.27
2022-11-15T00:21:53.654Z,4.21
2022-11-15T00:24:41.900Z,4.28
2022-11-15T00:27:31.839Z,4.26
2022-11-15T00:30:20.729Z,4.27
2022-11-15T00:33:10.172Z,4.22
2022-11-15T00:36:07.999Z,4.31
2022-11-15T00:38:56.701Z,4.25
2022-11-15T00:41:45.817Z,4.21
2022-11-15T00:44:34.297Z,4.29
2022-11-15T00:47:22.766Z,4.27
2022-11-15T00:50:15.124Z,4.29
2022-11-15T00:53:07.204Z,4.29
2022-11-15T00:55:55.833Z,4.31
2022-11-15T00:58:44.330Z,4.32
2022-11-15T01:01:33.596Z,4.30
2022-11-15T01:04:22.527Z,4.29
2022-11-15T01:07:11.383Z,4.35
2022-11-15T01:10:02.657Z,4.27
2022-11-15T01:12:51.577Z,4.33
2022-11-15T01:15:46.026Z,4.34
2022-11-15T01:18:35.051Z,4.32
2022-11-15T01:21:24.190Z,4.33
2022-11-15T01:24:16.677Z,4.41
2022-11-15T01:27:08.115Z,4.42
2022-11-15T01:29:56.881Z,4.36
2022-11-15T01:32:45.846Z,4.40
2022-11-15T01:35:34.408Z,4.35
2022-11-15T01:38:23.110Z,4.33
2022-11-15T01:41:20.107Z,4.29
2022-11-15T01:44:41.897Z,4.38
2022-11-15T01:47:35.438Z,4.36
2022-11-15T01:50:28.151Z,4.38
2022-11-15T01:53:16.760Z,4.29
2022-11-15T01:56:08.361Z,4.28
2022-11-15T01:58:59.894Z,4.34
2022-11-15T02:01:51.382Z,4.22
2022-11-15T02:04:44.363Z,4.30
2022-11-15T02:07:35.371Z,4.35
2022-11-15T02:10:26.736Z,4.33
2022-11-15T02:13:15.085Z,4.32
2022-11-15T02:16:13.196Z,4.32
2022-11-15T02:19:17.353Z,4.39
2022-11-15T02:22:18.996Z,4.26
2022-11-15T02:25:25.131Z,4.30
2022-11-15T02:28:46.001Z,4.29
2022-11-15T02:31:47.691Z,4.22
2022-11-15T02:34:47.491Z,4.30
2022-11-15T02:37:44.598Z,4.17
2022-11-15T02:40:44.303Z,4.27
2022-11-15T02:43:52.446Z,4.17
2022-11-15T02:47:00.840Z,4.16
2022-11-15T02:49:53.424Z,4.16
2022-11-15T02:52:42.260Z,4.11
2022-11-15T02:55:33.209Z,4.06
2022-11-15T02:59:01.489Z,4.08
2022-11-15T03:02:04.206Z,4.08
2022-11-15T03:04:59.474Z,4.14
2022-11-15T03:08:01.840Z,4.18
2022-11-15T03:11:01.059Z,4.14
2022-11-15T03:13:57.251Z,4.12
2022-11-15T03:16:52.441Z,4.12
2022-11-15T03:19:49.934Z,4.04
2022-11-15T03:22:43.784Z,4.01
2022-11-15T03:25:36.318Z,3.97
2022-11-15T03:28:29.523Z,4.10
2022-11-15T03:31:33.278Z,4.08
2022-11-15T03:34:31.730Z,4.08
2022-11-15T03:37:29.158Z,4.01
2022-11-15T03:40:18.740Z,3.97
2022-11-15T03:43:14.555Z,4.02
2022-11-15T03:46:08.464Z,4.06
2022-11-15T03:49:04.868Z,4.05
2022-11-15T03:51:54.454Z,4.01
2022-11-15T03:54:56.187Z,4.06
2022-11-15T03:57:45.777Z,4.07
2022-11-15T04:00:38.883Z,4.08
2022-11-15T04:03:28.493Z,4.10
2022-11-15T04:06:16.858Z,4.08
2022-11-15T04:09:05.787Z,4.07
2022-11-15T04:11:57.466Z,4.08
2022-11-15T04:15:06.548Z,4.09
2022-11-15T04:17:57.263Z,4.06
2022-11-15T04:20:58.107Z,4.05
2022-11-15T04:23:59.418Z,4.12
2022-11-15T04:26:48.171Z,4.11
2022-11-15T04:29:40.280Z,4.20
2022-11-15T04:32:30.094Z,4.12
2022-11-15T04:35:19.441Z,4.07
2022-11-15T04:38:10.060Z,4.05
2022-11-15T04:40:58.739Z,4.05
2022-11-15T04:43:47.543Z,4.07
2022-11-15T04:46:38.980Z,4.10
2022-11-15T04:49:27.683Z,4.11
2022-11-15T04:52:16.836Z,4.16
2022-11-15T04:55:08.338Z,4.20
2022-11-15T04:58:04.002Z,4.18
2022-11-15T05:00:53.294Z,4.18
2022-11-15T05:03:57.292Z,4.21
2022-11-15T05:06:45.627Z,4.19
2022-11-15T05:09:34.350Z,4.16
2022-11-15T05:12:23.054Z,4.19
2022-11-15T05:15:13.351Z,4.20
2022-11-15T05:18:03.458Z,4.13
2022-11-15T05:20:55.468Z,4.09
2022-11-15T05:23:44.942Z,4.10
2022-11-15T05:26:33.673Z,4.11
2022-11-15T05:29:22.351Z,4.09
2022-11-15T05:32:13.359Z,4.09
2022-11-15T05:35:02.500Z,4.08
2022-11-15T05:37:55.370Z,4.05
2022-11-15T05:40:47.118Z,4.11
2022-11-15T05:43:39.975Z,4.19
2022-11-15T05:46:29.922Z,4.10
2022-11-15T05:49:22.358Z,4.11
2022-11-15T05:52:13.654Z,4.11
2022-11-15T05:55:06.783Z,4.05
2022-11-15T05:57:57.036Z,4.13
2022-11-15T06:00:46.681Z,4.12
2022-11-15T06:03:35.263Z,4.18
2022-11-15T06:06:24.471Z,4.22
2022-11-15T06:09:12.772Z,4.26
2022-11-15T06:12:05.076Z,4.29
2022-11-15T06:14:53.651Z,4.34
2022-11-15T06:17:42.286Z,4.34
2022-11-15T06:20:31.961Z,4.34
2022-11-15T06:23:20.854Z,4.35
2022-11-15T06:26:09.700Z,4.28
2022-11-15T06:29:01.343Z,4.28
2022-11-15T06:31:49.630Z,4.34
2022-11-15T06:34:38.683Z,4.30
2022-11-15T06:37:27.302Z,4.35
2022-11-15T06:40:17.513Z,4.35
2022-11-15T06:43:06.850Z,4.37
2022-11-15T06:45:58.263Z,4.38
2022-11-15T06:48:47.016Z,4.41
2022-11-15T06:51:36.764Z,4.49
2022-11-15T06:54:25.381Z,4.53
2022-11-15T06:57:14.151Z,4.48
2022-11-15T07:00:02.860Z,4.42
2022-11-15T07:02:54.426Z,4.42
2022-11-15T07:05:42.961Z,4.40
2022-11-15T07:08:32.199Z,4.41
2022-11-15T07:11:21.129Z,4.52
2022-11-15T07:14:09.801Z,4.56
2022-11-15T07:16:58.485Z,4.51
2022-11-15T07:19:50.147Z,4.59
2022-11-15T07:22:38.679Z,4.52
2022-11-15T07:25:27.641Z,4.59
2022-11-15T07:28:16.299Z,4.55
2022-11-15T07:31:07.451Z,4.56
2022-11-15T07:33:56.559Z,4.65
2022-11-15T07:36:48.000Z,4.58
2022-11-15T07:39:36.365Z,4.63
2022-11-15T07:42:37.335Z,4.68
2022-11-15T07:45:29.948Z,4.63
2022-11-15T07:48:19.904Z,4.69
2022-11-15T07:51:13.863Z,4.75
2022-11-15T07:54:05.262Z,4.79
2022-11-15T07:56:54.040Z,4.80
2022-11-15T07:59:42.329Z,4.78
2022-11-15T08:02:31.006Z,4.88
2022-11-15T08:05:20.016Z,4.84
2022-11-15T08:08:09.688Z,4.84
2022-11-15T08:11:02.276Z,4.76
2022-11-15T08:13:50.805Z,4.76
2022-11-15T08:16:39.585Z,4.70
2022-11-15T08:19:27.958Z,4.74
2022-11-15T08:22:16.242Z,4.84
2022-11-15T08:25:04.704Z,4.88
2022-11-15T08:27:58.895Z,4.98
2022-11-15T08:30:48.298Z,5.05
2022-11-15T08:33:38.523Z,5.09
2022-11-15T08:36:26.887Z,5.18
2022-11-15T08:39:16.294Z,5.21
2022-11-15T08:42:04.885Z,5.26
2022-11-15T08:44:55.699Z,5.41
2022-11-15T08:47:45.677Z,5.46
2022-11-15T08:50:35.782Z,5.49
2022-11-15T08:53:24.188Z,5.46
2022-11-15T08:56:14.259Z,5.42
2022-11-15T08:59:05.010Z,5.46
2022-11-15T09:01:56.450Z,5.49
2022-11-15T09:04:45.646Z,5.41
2022-11-15T09:07:35.564Z,5.50
2022-11-15T09:10:25.382Z,5.50
2022-11-15T09:13:14.882Z,5.57
2022-11-15T09:16:05.079Z,5.62
2022-11-15T09:18:57.030Z,5.75
2022-11-15T09:21:45.655Z,5.69
2022-11-15T09:24:35.536Z,5.64
2022-11-15T09:27:24.165Z,5.67
2022-11-15T09:30:14.080Z,5.55
2022-11-15T09:33:03.228Z,5.50
2022-11-15T09:35:54.883Z,5.52
2022-11-15T09:38:43.397Z,5.58
2022-11-15T09:41:53.033Z,5.59
2022-11-15T09:45:03.229Z,5.57
2022-11-15T09:48:15.609Z,5.63
2022-11-15T09:51:09.033Z,5.71
2022-11-15T09:56:39.310Z,5.84
2022-11-15T09:59:26.321Z,5.78
2022-11-15T10:02:21.331Z,5.80
2022-11-15T10:04:51.823Z,5.87
2022-11-15T10:07:31.105Z,5.91
2022-11-15T10:10:07.363Z,5.98
2022-11-15T10:12:37.952Z,5.94
2022-11-15T10:15:16.379Z,5.89
2022-11-15T10:18:19.376Z,5.90
2022-11-15T10:20:52.902Z,5.88
2022-11-15T10:23:27.345Z,5.86
2022-11-15T10:26:06.383Z,5.88
2022-11-15T10:28:36.949Z,5.96
2022-11-15T10:31:07.451Z,5.97
2022-11-15T10:33:40.585Z,5.91
2022-11-15T10:36:34.548Z,5.92
2022-11-15T10:39:07.935Z,5.97
2022-11-15T10:41:43.432Z,5.92
2022-11-15T10:44:30.243Z,5.92
2022-11-15T10:47:26.367Z,5.85
2022-11-15T10:50:05.398Z,5.82
2022-11-15T10:52:38.651Z,5.68
2022-11-15T10:55:28.689Z,5.73
2022-11-15T10:58:09.629Z,5.78
2022-11-15T11:00:43.105Z,5.87
2022-11-15T11:03:32.739Z,5.94
2022-11-15T11:06:12.775Z,6.04
2022-11-15T11:08:43.715Z,6.06
2022-11-15T11:11:16.323Z,6.16
2022-11-15T11:13:46.676Z,6.25
2022-11-15T11:16:45.240Z,6.12
2022-11-15T11:19:34.444Z,6.30
2022-11-15T11:22:13.475Z,6.19
2022-11-15T11:24:49.692Z,6.24
2022-11-15T11:27:35.866Z,6.20
2022-11-15T11:30:12.962Z,6.20
2022-11-15T11:33:06.200Z,6.31
2022-11-15T11:35:43.835Z,6.30
2022-11-15T11:38:38.954Z,6.35
2022-11-15T11:41:17.965Z,6.44
2022-11-15T11:44:02.703Z,6.51
2022-11-15T11:46:51.795Z,6.54
2022-11-15T11:49:29.040Z,6.51
2022-11-15T11:52:06.355Z,6.53
2022-11-15T11:54:44.341Z,6.59
2022-11-15T11:57:19.873Z,6.65
2022-11-15T11:59:57.660Z,6.71
2022-11-15T12:02:32.976Z,6.85
2022-11-15T12:05:12.734Z,6.88
2022-11-15T12:07:45.149Z,6.96
2022-11-15T12:10:27.136Z,6.89
2022-11-15T12:13:06.177Z,7.01
2022-11-15T12:15:47.704Z,7.04
2022-11-15T12:18:20.529Z,6.98
2022-11-15T12:20:59.027Z,7.03
2022-11-15T12:23:32.636Z,6.90
2022-11-15T12:26:06.811Z,6.90
2022-11-15T12:29:04.510Z,6.89
2022-11-15T12:31:42.419Z,6.83
2022-11-15T12:34:33.835Z,6.88
2022-11-15T12:37:03.924Z,6.82
2022-11-15T12:40:04.378Z,6.81
2022-11-15T12:42:44.664Z,6.79
2022-11-15T12:45:30.517Z,6.80
2022-11-15T12:48:38.748Z,6.90
2022-11-15T12:51:09.657Z,7.01
2022-11-15T12:53:39.867Z,7.01
2022-11-15T12:56:25.026Z,7.04
2022-11-15T12:58:58.487Z,7.06
2022-11-15T13:01:58.997Z,6.99
2022-11-15T13:04:34.067Z,7.06
2022-11-15T13:07:06.143Z,7.06
2022-11-15T13:09:58.641Z,7.17
2022-11-15T13:12:54.452Z,6.89
2022-11-15T13:15:54.557Z,6.93
2022-11-15T13:18:36.038Z,7.03
2022-11-15T13:21:35.492Z,7.15
2022-11-15T13:24:05.544Z,7.17
2022-11-15T13:26:35.793Z,7.20
2022-11-15T13:29:05.906Z,7.12
2022-11-15T13:31:40.540Z,7.05
2022-11-15T13:34:49.933Z,7.11
2022-11-15T13:37:34.566Z,7.16
2022-11-15T13:40:28.853Z,7.19
2022-11-15T13:43:00.330Z,7.08
2022-11-15T13:45:30.912Z,7.05
2022-11-15T13:48:02.516Z,7.01
2022-11-15T13:50:37.676Z,6.96
2022-11-15T13:53:13.903Z,6.94
2022-11-15T13:55:44.050Z,6.87
2022-11-15T13:58:14.710Z,6.92
2022-11-15T14:00:49.252Z,6.87
2022-11-15T14:03:23.774Z,6.89
2022-11-15T14:06:08.425Z,6.83
2022-11-15T14:08:42.422Z,6.89
2022-11-15T14:11:17.742Z,6.79
2022-11-15T14:14:06.903Z,6.75
2022-11-15T14:16:39.294Z,6.72
2022-11-15T14:19:13.707Z,6.72
2022-11-15T14:22:15.006Z,6.65
2022-11-15T14:24:49.894Z,6.68
2022-11-15T14:27:21.800Z,6.61
2022-11-15T14:29:52.208Z,6.62
2022-11-15T14:32:24.705Z,6.64
2022-11-15T14:34:59.522Z,6.64
2022-11-15T14:37:32.890Z,6.65
2022-11-15T14:40:07.497Z,6.65
2022-11-15T14:42:37.801Z,6.69
2022-11-15T14:45:17.037Z,6.61
2022-11-15T14:47:47.676Z,6.65
2022-11-15T14:50:19.577Z,6.60
2022-11-15T14:52:50.355Z,6.61
2022-11-15T14:55:28.070Z,6.63
2022-11-15T14:57:58.499Z,6.62
2022-11-15T15:00:35.244Z,6.59
2022-11-15T15:03:08.151Z,6.63
2022-11-15T15:05:40.753Z,6.63
2022-11-15T15:08:11.428Z,6.63
2022-11-15T15:10:46.884Z,6.59
2022-11-15T15:13:21.506Z,6.58
2022-11-15T15:15:53.143Z,6.60
2022-11-15T15:18:23.995Z,6.63
2022-11-15T15:21:03.403Z,6.62
2022-11-15T15:23:33.690Z,6.59
2022-11-15T15:26:06.478Z,6.61
2022-11-15T15:28:37.154Z,6.63
2022-11-15T15:31:08.214Z,6.64
2022-11-15T15:33:38.278Z,6.64
2022-11-15T15:36:09.538Z,6.65
2022-11-15T15:38:40.881Z,6.66
2022-11-15T15:41:16.719Z,6.66
2022-11-15T15:43:49.064Z,6.67
2022-11-15T15:46:21.397Z,6.67
2022-11-15T15:48:51.529Z,6.67
2022-11-15T15:51:22.013Z,6.67
2022-11-15T15:53:53.831Z,6.66
2022-11-15T15:56:26.576Z,6.67
2022-11-15T15:58:56.728Z,6.65
2022-11-15T16:01:26.827Z,6.67
2022-11-15T16:03:56.810Z,6.67
2022-11-15T16:06:39.307Z,6.61
2022-11-15T16:09:17.438Z,6.62
2022-11-15T16:11:51.198Z,6.64
2022-11-15T16:14:21.270Z,6.65
2022-11-15T16:16:51.374Z,6.63
2022-11-15T16:19:21.494Z,6.63
2022-11-15T16:21:53.103Z,6.62
2022-11-15T16:24:23.855Z,6.65
2022-11-15T16:26:56.767Z,6.63
2022-11-15T16:29:27.070Z,6.63
2022-11-15T16:31:57.346Z,6.65
2022-11-15T16:34:31.145Z,6.65
2022-11-15T16:37:03.664Z,6.67
2022-11-15T16:39:33.886Z,6.66
2022-11-15T16:42:07.194Z,6.66
2022-11-15T16:44:37.452Z,6.67
2022-11-15T16:47:07.655Z,6.68
2022-11-15T16:49:39.218Z,6.67
2022-11-15T16:52:09.307Z,6.67
2022-11-15T16:54:39.589Z,6.68
2022-11-15T16:57:13.229Z,6.69
2022-11-15T16:59:43.333Z,6.69
2022-11-15T17:02:16.100Z,6.68
2022-11-15T17:04:46.159Z,6.71
2022-11-15T17:07:19.313Z,6.71
2022-11-15T17:09:49.495Z,6.72
2022-11-15T17:12:22.209Z,6.71
2022-11-15T17:14:55.013Z,6.74
2022-11-15T17:17:26.586Z,6.76
2022-11-15T17:19:57.105Z,6.75
2022-11-15T17:22:28.930Z,6.74
2022-11-15T17:24:59.375Z,6.76
2022-11-15T17:27:32.523Z,6.77
2022-11-15T17:30:02.686Z,6.76
2022-11-15T17:32:33.026Z,6.78
2022-11-15T17:35:03.155Z,6.81
2022-11-15T17:37:33.472Z,6.80
2022-11-15T17:40:04.789Z,6.82
2022-11-15T17:42:37.696Z,6.82
2022-11-15T17:45:10.399Z,6.81
2022-11-15T17:47:40.975Z,6.81
2022-11-15T17:50:12.875Z,6.81
2022-11-15T17:52:43.118Z,6.82
2022-11-15T17:55:13.525Z,6.85
2022-11-15T17:57:47.200Z,6.84
2022-11-15T18:00:19.852Z,6.84
2022-11-15T18:02:49.931Z,6.84
2022-11-15T18:05:20.237Z,6.84
2022-11-15T18:07:50.251Z,6.84
2022-11-15T18:10:21.217Z,6.86
2022-11-15T18:12:53.944Z,6.85
2022-11-15T18:15:24.378Z,6.85
2022-11-15T18:18:00.836Z,6.85
2022-11-15T18:20:31.590Z,6.85
2022-11-15T18:23:01.635Z,6.86
2022-11-15T18:25:32.016Z,6.86
2022-11-15T18:28:04.851Z,6.86
2022-11-15T18:30:42.157Z,6.86
2022-11-15T18:33:13.125Z,6.87
2022-11-15T18:35:43.163Z,6.87
2022-11-15T18:38:14.469Z,6.89
2022-11-15T18:40:44.630Z,6.89
2022-11-15T18:43:17.363Z,6.90
2022-11-15T18:45:51.143Z,6.90
2022-11-15T18:48:20.984Z,6.92
2022-11-15T18:50:54.024Z,6.93
2022-11-15T18:53:25.535Z,6.95
2022-11-15T18:55:57.649Z,6.96
2022-11-15T18:58:33.036Z,6.96
2022-11-15T19:01:07.512Z,6.96
2022-11-15T19:03:39.559Z,6.97
2022-11-15T19:06:12.351Z,6.96
2022-11-15T19:08:43.644Z,6.95
2022-11-15T19:11:16.671Z,6.95
2022-11-15T19:13:50.981Z,6.93
2022-11-15T19:16:21.288Z,6.94
2022-11-15T19:18:51.854Z,6.92
2022-11-15T19:21:22.144Z,6.93
2022-11-15T19:23:53.164Z,6.95
2022-11-15T19:26:24.794Z,6.95
2022-11-15T19:28:58.949Z,6.94
2022-11-15T19:31:31.345Z,6.90
2022-11-15T19:34:03.414Z,6.89
2022-11-15T19:36:35.445Z,6.90
2022-11-15T19:39:08.652Z,6.91
2022-11-15T19:41:43.224Z,6.92
2022-11-15T19:44:16.296Z,6.94
2022-11-15T19:46:47.322Z,6.96
2022-11-15T19:49:17.411Z,6.95
2022-11-15T19:51:48.588Z,6.97
2022-11-15T19:54:18.875Z,6.97
2022-11-15T19:56:49.187Z,6.98
2022-11-15T19:59:21.900Z,6.99
2022-11-15T20:01:51.900Z,6.97
2022-11-15T20:04:22.335Z,6.99
2022-11-15T20:06:52.666Z,7.00
2022-11-15T20:09:26.012Z,7.01
2022-11-15T20:11:57.570Z,7.03
2022-11-15T20:14:30.540Z,7.01
2022-11-15T20:17:00.781Z,7.04
2022-11-15T20:19:30.835Z,7.03
2022-11-15T20:22:01.214Z,7.04
2022-11-15T20:24:31.524Z,7.05
2022-11-15T20:27:01.679Z,7.06
2022-11-15T20:29:34.278Z,7.09
2022-11-15T20:32:05.820Z,7.09
2022-11-15T20:34:37.548Z,7.10
2022-11-15T20:37:07.840Z,7.12
2022-11-15T20:39:37.832Z,7.12
2022-11-15T20:42:08.602Z,7.13
2022-11-15T20:44:41.295Z,7.15
2022-11-15T20:47:11.300Z,7.18
2022-11-15T20:49:41.676Z,7.20
2022-11-15T20:52:11.698Z,7.18
2022-11-15T20:54:41.687Z,7.20
2022-11-15T20:57:11.901Z,7.20
2022-11-15T20:59:44.705Z,7.20
2022-11-15T21:02:16.242Z,7.24
2022-11-15T21:04:46.491Z,7.24
2022-11-15T21:07:16.577Z,7.24
2022-11-15T21:09:58.962Z,7.24
2022-11-15T21:12:29.050Z,7.27
2022-11-15T21:15:01.731Z,7.28
2022-11-15T21:17:31.899Z,7.29
2022-11-15T21:20:01.924Z,7.27
2022-11-15T21:22:32.012Z,7.31
2022-11-15T21:25:04.081Z,7.36
2022-11-15T21:27:35.092Z,7.31
2022-11-15T21:30:09.423Z,7.32
2022-11-15T21:32:39.882Z,7.30
2022-11-15T21:35:10.598Z,7.31
2022-11-15T21:37:42.195Z,7.31
2022-11-15T21:40:14.069Z,7.32
2022-11-15T21:42:44.390Z,7.31
2022-11-15T21:45:18.301Z,7.30
2022-11-15T21:47:48.200Z,7.31
2022-11-15T21:50:20.436Z,7.32
2022-11-15T21:52:50.460Z,7.31
2022-11-15T21:55:20.701Z,7.33
2022-11-15T21:57:50.692Z,7.33
2022-11-15T22:00:36.117Z,7.33
2022-11-15T22:03:06.611Z,7.34
2022-11-15T22:05:36.904Z,7.35
2022-11-15T22:08:07.333Z,7.35
2022-11-15T22:10:37.559Z,7.36
2022-11-15T22:13:07.625Z,7.39
2022-11-15T22:15:41.054Z,7.37
2022-11-15T22:18:11.482Z,7.37
2022-11-15T22:20:45.414Z,7.37
2022-11-15T22:23:15.712Z,7.37
2022-11-15T22:25:46.527Z,7.40
2022-11-15T22:28:16.712Z,7.42
2022-11-15T22:30:52.069Z,7.40
2022-11-15T22:33:24.424Z,7.40
2022-11-15T22:35:54.670Z,7.39
2022-11-15T22:38:25.599Z,7.39
2022-11-15T22:40:55.948Z,7.47
2022-11-15T22:43:27.867Z,7.41
2022-11-15T22:46:04.064Z,7.39
2022-11-15T22:48:36.450Z,7.39
2022-11-15T22:51:07.616Z,7.39
2022-11-15T22:53:37.914Z,7.39
2022-11-15T22:56:09.787Z,7.40
2022-11-15T22:58:39.947Z,7.39
2022-11-15T23:01:23.817Z,7.41
2022-11-15T23:03:56.270Z,7.43
2022-11-15T23:06:26.528Z,7.43
2022-11-15T23:08:56.682Z,7.42
2022-11-15T23:11:39.179Z,7.43
2022-11-15T23:14:09.371Z,7.41
2022-11-15T23:16:42.630Z,7.43
2022-11-15T23:19:14.788Z,7.42
2022-11-15T23:21:59.395Z,7.44
2022-11-15T23:24:29.827Z,7.42
2022-11-15T23:27:02.055Z,7.44
2022-11-15T23:29:53.263Z,7.38
2022-11-15T23:32:38.818Z,7.39
2022-11-15T23:35:09.641Z,7.40
2022-11-15T23:37:39.973Z,7.41
2022-11-15T23:40:12.476Z,7.39
2022-11-15T23:42:42.901Z,7.41
2022-11-15T23:45:14.076Z,7.38
2022-11-15T23:47:47.120Z,7.39
2022-11-15T23:50:17.501Z,7.38
2022-11-15T23:52:47.792Z,7.39
2022-11-15T23:55:18.338Z,7.39
2022-11-15T23:57:48.695Z,7.41
